Time;durP1;ratioP1;P1;durP2;ratioP2;P2;SDS_P1;SDS_P2;PMS_P1;PMS_P2;Temp;Humidity;BMP_temperature;BMP_pressure;BME280_temperature;BME280_humidity;BME280_pressure;Samples;Min_cycle;Max_cycle;Signal;HPM_P1;HPM_P2
2024/01/11 00:01:28;;;;;;;6.57;5.97;;;-4.70;99.90;;;;;;5018020;28;20056;-70
2024/01/11 00:03:53;;;;;;;6.63;6.03;;;-4.70;99.90;;;;;;5018011;28;20050;-70
2024/01/11 00:06:19;;;;;;;6.28;5.72;;;-4.80;99.90;;;;;;5035887;28;20056;-70
2024/01/11 00:08:44;;;;;;;6.53;5.93;;;-4.60;99.90;;;;;;5035913;28;20037;-60
2024/01/11 00:11:10;;;;;;;6.30;5.80;;;-4.60;99.90;;;;;;5035609;28;20049;-60
2024/01/11 00:13:36;;;;;;;7.10;6.40;;;-4.90;99.90;;;;;;5017987;28;20041;-59
2024/01/11 00:16:02;;;;;;;6.20;5.60;;;-4.70;99.90;;;;;;5035444;28;20087;-60
2024/01/11 00:18:28;;;;;;;6.70;6.10;;;-4.90;99.90;;;;;;5035471;28;20037;-61
2024/01/11 00:20:53;;;;;;;6.57;5.97;;;-4.90;99.90;;;;;;5035578;28;20436;-59
2024/01/11 00:23:25;;;;;;;6.83;6.23;;;-4.90;99.90;;;;;;5034931;28;20057;-59
2024/01/11 00:25:51;;;;;;;5.93;5.43;;;-4.70;99.90;;;;;;5035324;28;20095;-59
2024/01/11 00:28:17;;;;;;;6.97;6.37;;;-4.90;99.90;;;;;;5035275;28;20485;-59
2024/01/11 00:30:42;;;;;;;6.77;6.17;;;-5.00;99.90;;;;;;5035409;28;20037;-60
2024/01/11 00:33:09;;;;;;;6.97;6.37;;;-4.60;99.90;;;;;;5017420;28;20037;-59
2024/01/11 00:35:34;;;;;;;6.77;6.17;;;-4.80;99.90;;;;;;5035335;28;20109;-59
2024/01/11 00:38:00;;;;;;;6.77;6.17;;;-4.70;99.90;;;;;;5035074;28;20080;-59
2024/01/11 00:40:26;;;;;;;7.17;6.57;;;-4.80;99.90;;;;;;5034985;28;20041;-60
2024/01/11 00:42:51;;;;;;;6.82;6.22;;;-4.80;99.90;;;;;;5034969;28;20041;-59
2024/01/11 00:45:18;;;;;;;6.90;6.30;;;-5.20;99.90;;;;;;5035098;28;20037;-59
2024/01/11 00:47:43;;;;;;;7.27;6.67;;;-4.70;99.90;;;;;;5035183;28;20059;-59
2024/01/11 00:50:09;;;;;;;7.80;7.10;;;-5.00;99.90;;;;;;5035024;28;20120;-59
2024/01/11 00:52:35;;;;;;;6.83;6.23;;;-4.60;99.90;;;;;;5034740;28;20041;-59
2024/01/11 00:55:00;;;;;;;7.00;6.40;;;-4.70;99.90;;;;;;5034964;28;20079;-59
2024/01/11 00:57:26;;;;;;;7.67;6.97;;;-5.00;99.90;;;;;;5034703;28;20098;-60
2024/01/11 00:59:52;;;;;;;6.40;5.80;;;-4.80;99.90;;;;;;5034919;28;20121;-59
2024/01/11 01:02:20;;;;;;;7.20;6.60;;;-5.00;99.90;;;;;;5034827;28;20120;-59
2024/01/11 01:04:45;;;;;;;7.00;6.40;;;-5.00;99.90;;;;;;5034862;28;20496;-59
2024/01/11 01:07:11;;;;;;;6.73;6.13;;;-4.90;99.90;;;;;;5034591;28;20037;-63
2024/01/11 01:09:36;;;;;;;7.77;7.17;;;-5.00;99.90;;;;;;5033726;28;20045;-70
2024/01/11 01:12:02;;;;;;;7.10;6.50;;;-4.80;99.90;;;;;;5034387;28;20033;-70
2024/01/11 01:14:28;;;;;;;7.57;6.97;;;-4.90;99.90;;;;;;5016664;28;20090;-70
2024/01/11 01:16:54;;;;;;;7.00;6.40;;;-4.70;99.90;;;;;;5016642;28;20507;-70
2024/01/11 01:19:19;;;;;;;7.43;6.83;;;-4.70;99.90;;;;;;5016581;28;20509;-64
2024/01/11 01:21:45;;;;;;;6.63;6.03;;;-4.70;99.90;;;;;;5016135;28;20064;-63
2024/01/11 01:24:17;;;;;;;7.13;6.43;;;-4.80;99.90;;;;;;5034274;28;20056;-63
2024/01/11 01:26:42;;;;;;;7.20;6.60;;;-4.80;99.90;;;;;;5034109;28;20408;-63
2024/01/11 01:29:08;;;;;;;7.50;6.80;;;-4.90;99.90;;;;;;5016558;28;20048;-63
2024/01/11 01:31:37;;;;;;;7.13;6.53;;;-5.00;99.90;;;;;;5034298;28;20034;-63
2024/01/11 01:34:04;;;;;;;6.77;6.17;;;-4.60;99.90;;;;;;5033904;28;20041;-63
2024/01/11 01:36:29;;;;;;;6.53;5.93;;;-4.40;99.90;;;;;;5034197;28;20033;-64
2024/01/11 01:38:55;;;;;;;7.30;6.70;;;-5.00;99.90;;;;;;5033875;28;20087;-65
2024/01/11 01:41:21;;;;;;;6.13;5.57;;;-5.00;99.90;;;;;;5034124;28;20033;-63
2024/01/11 01:43:47;;;;;;;6.60;6.00;;;-4.70;99.90;;;;;;5034089;28;20040;-64
2024/01/11 01:46:17;;;;;;;7.23;6.63;;;;;;;;;;5016058;28;20405;-64
2024/01/11 01:48:42;;;;;;;6.63;6.03;;;-5.30;99.90;;;;;;5033952;28;20047;-63
2024/01/11 01:51:08;;;;;;;7.03;6.43;;;-5.20;99.90;;;;;;5033590;28;20045;-63
2024/01/11 01:53:34;;;;;;;6.97;6.37;;;-5.20;99.90;;;;;;5033590;28;20037;-63
2024/01/11 01:55:59;;;;;;;6.87;6.27;;;-5.20;99.90;;;;;;5033851;28;20030;-63
2024/01/11 01:58:25;;;;;;;7.90;7.23;;;-5.10;99.90;;;;;;5033427;28;20048;-63
2024/01/11 02:00:52;;;;;;;7.37;6.67;;;-5.10;99.90;;;;;;5033724;28;20037;-63
2024/01/11 02:03:18;;;;;;;7.60;7.00;;;-5.10;99.90;;;;;;5033687;28;20440;-63
2024/01/11 02:05:43;;;;;;;7.00;6.40;;;-5.10;99.90;;;;;;5033416;28;20121;-63
2024/01/11 02:08:15;;;;;;;7.30;6.63;;;-5.10;99.90;;;;;;5033401;28;20540;-63
2024/01/11 02:10:41;;;;;;;7.97;7.27;;;-5.10;99.90;;;;;;5033519;28;20124;-63
2024/01/11 02:13:07;;;;;;;7.50;6.90;;;-5.10;99.90;;;;;;5033221;28;20037;-63
2024/01/11 02:15:34;;;;;;;8.00;7.30;;;-5.10;99.90;;;;;;5033184;28;20048;-63
2024/01/11 02:18:00;;;;;;;7.50;6.90;;;-5.10;99.90;;;;;;5033565;28;20056;-63
2024/01/11 02:20:26;;;;;;;7.77;7.07;;;-5.10;99.90;;;;;;5032796;28;20484;-63
2024/01/11 02:23:14;;;;;;;8.17;7.37;;;-5.20;99.90;;;;;;5032665;28;20064;-64
2024/01/11 02:25:47;;;;;;;7.27;6.67;;;-5.20;99.90;;;;;;5032273;28;20119;-63
2024/01/11 02:28:13;;;;;;;7.97;7.27;;;-5.20;99.90;;;;;;5033167;28;20041;-59
2024/01/11 02:30:38;;;;;;;7.53;6.83;;;-5.10;99.90;;;;;;5033034;28;20107;-62
2024/01/11 02:33:05;;;;;;;7.57;6.87;;;-5.20;99.90;;;;;;5033231;28;20487;-59
2024/01/11 02:35:31;;;;;;;6.77;6.17;;;-5.20;99.90;;;;;;5015449;28;20171;-58
2024/01/11 02:37:58;;;;;;;6.73;6.13;;;-5.20;99.90;;;;;;5032944;28;20041;-59
2024/01/11 02:40:24;;;;;;;9.33;8.53;;;-5.20;99.90;;;;;;5015200;28;20064;-59
2024/01/11 02:42:49;;;;;;;7.33;6.63;;;-5.10;99.90;;;;;;5015132;28;20041;-62
2024/01/11 02:45:15;;;;;;;7.60;6.90;;;-5.20;99.90;;;;;;5033203;28;20051;-60
2024/01/11 02:47:41;;;;;;;8.57;7.77;;;-5.20;99.90;;;;;;5033128;28;20049;-59
2024/01/11 02:50:07;;;;;;;7.67;6.97;;;-5.10;99.90;;;;;;5032711;28;20128;-59
2024/01/11 02:52:33;;;;;;;8.27;7.57;;;-5.10;99.90;;;;;;5032876;28;20108;-60
2024/01/11 02:54:59;;;;;;;7.17;6.57;;;-5.10;99.90;;;;;;5032862;28;20042;-59
2024/01/11 02:57:25;;;;;;;8.60;7.90;;;-5.10;99.90;;;;;;5032966;28;20055;-59
2024/01/11 02:59:51;;;;;;;8.00;7.30;;;-5.10;99.90;;;;;;5015374;28;20045;-59
2024/01/11 03:02:17;;;;;;;7.33;6.63;;;-5.20;99.90;;;;;;5015363;28;20087;-59
2024/01/11 03:04:42;;;;;;;7.57;6.87;;;-5.20;99.90;;;;;;5032973;28;20097;-59
2024/01/11 03:07:08;;;;;;;8.03;7.33;;;-5.20;99.90;;;;;;5032628;28;20501;-60
2024/01/11 03:09:34;;;;;;;7.90;7.13;;;-5.10;99.90;;;;;;5032796;28;20046;-59
2024/01/11 03:12:00;;;;;;;7.43;6.73;;;-5.20;99.90;;;;;;5032912;28;20509;-59
2024/01/11 03:14:26;;;;;;;7.07;6.47;;;-5.20;99.90;;;;;;5032677;28;20048;-59
2024/01/11 03:16:51;;;;;;;7.70;7.00;;;-5.20;99.90;;;;;;5032568;28;20409;-59
2024/01/11 03:19:17;;;;;;;8.33;7.63;;;-5.10;99.90;;;;;;5032812;28;20037;-59
2024/01/11 03:21:56;;;;;;;7.73;7.07;;;-5.20;99.90;;;;;;5032069;28;20060;-58
2024/01/11 03:24:29;;;;;;;7.97;7.27;;;-5.10;99.90;;;;;;5032502;28;20053;-59
2024/01/11 03:26:54;;;;;;;8.00;7.30;;;-5.10;99.90;;;;;;5032478;28;20041;-59
2024/01/11 03:29:20;;;;;;;7.37;6.70;;;-5.10;99.90;;;;;;5032792;28;20486;-65
2024/01/11 03:31:46;;;;;;;7.70;7.10;;;-5.20;99.90;;;;;;5014720;28;20041;-65
2024/01/11 03:34:12;;;;;;;7.87;7.17;;;-5.20;99.90;;;;;;5035853;28;20029;-65
2024/01/11 03:36:37;;;;;;;7.37;6.77;;;-5.20;99.90;;;;;;5036443;28;20041;-65
2024/01/11 03:39:03;;;;;;;7.70;7.00;;;-5.20;99.90;;;;;;5036573;28;20366;-59
2024/01/11 03:41:29;;;;;;;8.13;7.43;;;-5.10;99.90;;;;;;5036132;28;20037;-60
2024/01/11 03:43:54;;;;;;;8.20;7.50;;;-5.10;99.90;;;;;;5035957;28;20072;-59
2024/01/11 03:46:20;;;;;;;8.20;7.50;;;-5.10;99.90;;;;;;5035973;28;20084;-59
2024/01/11 03:48:46;;;;;;;7.57;6.97;;;-5.10;99.90;;;;;;5036316;28;20107;-59
2024/01/11 03:51:11;;;;;;;7.60;6.90;;;-5.10;99.90;;;;;;5036133;28;20038;-59
2024/01/11 03:53:37;;;;;;;8.27;7.47;;;-5.20;99.90;;;;;;5035978;28;20045;-59
2024/01/11 03:56:03;;;;;;;7.73;7.07;;;-5.20;99.90;;;;;;5036192;28;20045;-58
2024/01/11 03:58:29;;;;;;;9.17;8.37;;;-5.20;99.90;;;;;;5035799;28;20085;-59
2024/01/11 04:00:54;;;;;;;7.63;7.03;;;-5.20;99.90;;;;;;5018069;28;20038;-58
2024/01/11 04:03:20;;;;;;;7.90;7.20;;;-5.20;99.90;;;;;;5036010;28;20049;-60
2024/01/11 04:05:45;;;;;;;8.13;7.43;;;-5.20;99.90;;;;;;5035657;28;20042;-59
2024/01/11 04:08:11;;;;;;;8.13;7.43;;;-5.20;99.90;;;;;;5035694;28;20048;-66
2024/01/11 04:10:37;;;;;;;8.20;7.50;;;-5.20;99.90;;;;;;5035717;28;20046;-60
2024/01/11 04:13:03;;;;;;;7.83;7.13;;;-5.20;99.90;;;;;;5035887;28;20041;-59
2024/01/11 04:15:28;;;;;;;8.23;7.50;;;-5.20;99.90;;;;;;5035556;28;20072;-59
2024/01/11 04:17:54;;;;;;;7.90;7.20;;;-5.20;99.90;;;;;;5035477;28;20080;-59
2024/01/11 04:20:19;;;;;;;7.93;7.20;;;-5.30;99.90;;;;;;5017668;28;20119;-59
2024/01/11 04:22:52;;;;;;;8.57;7.77;;;-5.20;99.90;;;;;;5035125;28;20529;-65
2024/01/11 04:25:17;;;;;;;8.30;7.60;;;-5.30;99.90;;;;;;5018006;28;20048;-59
2024/01/11 04:27:43;;;;;;;8.40;7.67;;;-5.20;99.90;;;;;;5035555;28;20401;-59
2024/01/11 04:30:09;;;;;;;6.97;6.37;;;-5.20;99.90;;;;;;5017462;28;20037;-59
2024/01/11 04:32:34;;;;;;;8.03;7.33;;;-5.30;99.90;;;;;;5035439;28;20033;-59
2024/01/11 04:35:00;;;;;;;7.70;7.00;;;-5.20;99.90;;;;;;5035412;28;20121;-59
2024/01/11 04:37:26;;;;;;;7.10;6.50;;;-5.20;99.90;;;;;;5035362;28;20041;-59
2024/01/11 04:39:51;;;;;;;7.33;6.63;;;-5.20;99.90;;;;;;5017746;28;20415;-59
2024/01/11 04:42:17;;;;;;;7.37;6.73;;;-5.20;99.90;;;;;;5017289;28;20134;-59
2024/01/11 04:44:43;;;;;;;8.10;7.40;;;-5.20;99.90;;;;;;5034716;28;20152;-59
2024/01/11 04:47:08;;;;;;;8.00;7.30;;;-5.20;99.90;;;;;;5035156;28;20041;-59
2024/01/11 04:49:34;;;;;;;8.60;7.80;;;-5.20;99.90;;;;;;5017470;28;20144;-64
2024/01/11 04:52:00;;;;;;;8.90;8.10;;;-5.30;99.90;;;;;;5017140;28;20124;-64
2024/01/11 04:54:25;;;;;;;9.27;8.40;;;-5.20;99.90;;;;;;5035006;28;20038;-64
2024/01/11 04:56:51;;;;;;;8.20;7.50;;;-5.10;99.90;;;;;;5034648;28;20038;-64
2024/01/11 04:59:16;;;;;;;7.67;7.07;;;-5.00;99.90;;;;;;5017597;28;20132;-64
2024/01/11 05:01:42;;;;;;;8.97;8.17;;;-4.90;99.90;;;;;;5034950;28;20045;-64
2024/01/11 05:04:08;;;;;;;8.77;7.97;;;-4.80;99.90;;;;;;5034903;28;20477;-64
2024/01/11 05:06:34;;;;;;;8.23;7.53;;;-4.70;99.90;;;;;;5034566;28;20046;-64
2024/01/11 05:08:59;;;;;;;9.10;8.30;;;-4.60;99.90;;;;;;5034732;28;20052;-64
2024/01/11 05:11:26;;;;;;;9.40;8.50;;;-4.50;99.90;;;;;;5034752;28;20033;-64
2024/01/11 05:13:52;;;;;;;8.47;7.77;;;-4.40;99.90;;;;;;5034566;28;20400;-64
2024/01/11 05:16:18;;;;;;;8.60;7.80;;;-4.30;99.90;;;;;;5034736;28;20481;-64
2024/01/11 05:18:43;;;;;;;8.03;7.23;;;-4.20;99.90;;;;;;5034295;28;20098;-64
2024/01/11 05:21:09;;;;;;;9.23;8.33;;;-4.20;99.90;;;;;;5034550;28;20124;-64
2024/01/11 05:23:41;;;;;;;8.90;8.10;;;-4.10;99.90;;;;;;5033888;28;20158;-64
2024/01/11 05:26:08;;;;;;;9.10;8.30;;;-4.00;99.90;;;;;;5034164;28;20045;-64
2024/01/11 05:28:34;;;;;;;8.70;7.90;;;-3.90;99.90;;;;;;5034126;28;20041;-64
2024/01/11 05:31:00;;;;;;;8.80;8.00;;;-3.80;99.90;;;;;;5034285;28;20535;-64
2024/01/11 05:33:26;;;;;;;9.20;8.40;;;-3.70;99.90;;;;;;5033934;28;20041;-64
2024/01/11 05:35:53;;;;;;;8.68;7.88;;;-3.70;99.90;;;;;;5034268;28;20037;-64
2024/01/11 05:38:19;;;;;;;8.73;7.93;;;-3.60;99.90;;;;;;5016362;28;20037;-64
2024/01/11 05:40:45;;;;;;;7.90;7.20;;;-3.70;99.90;;;;;;4999862;28;20042;-64
2024/01/11 05:43:10;;;;;;;8.27;7.57;;;-3.60;99.90;;;;;;5034075;28;20052;-64
2024/01/11 05:45:36;;;;;;;8.05;7.35;;;-3.40;99.90;;;;;;5034042;28;20073;-64
2024/01/11 05:48:02;;;;;;;8.10;7.40;;;;;;;;;;5034003;28;20116;-65
2024/01/11 05:50:28;;;;;;;8.38;7.68;;;-3.20;99.90;;;;;;5033605;28;20084;-69
2024/01/11 05:52:54;;;;;;;8.30;7.60;;;-3.00;99.90;;;;;;5033835;28;20069;-65
2024/01/11 05:55:20;;;;;;;8.68;7.90;;;-3.30;99.90;;;;;;5033300;28;20041;-65
2024/01/11 05:57:46;;;;;;;7.88;7.18;;;-3.10;99.90;;;;;;5033489;28;20504;-65
2024/01/11 06:00:12;;;;;;;9.55;8.75;;;-2.90;99.90;;;;;;5033571;28;20041;-59
2024/01/11 06:02:37;;;;;;;8.52;7.82;;;-2.90;99.90;;;;;;5033723;28;20041;-60
2024/01/11 06:05:04;;;;;;;8.32;7.55;;;-2.80;99.90;;;;;;5033590;28;20106;-59
2024/01/11 06:07:29;;;;;;;8.25;7.55;;;-2.80;99.90;;;;;;5033687;28;20044;-60
2024/01/11 06:09:55;;;;;;;7.90;7.13;;;-2.70;99.90;;;;;;5015590;28;20049;-59
2024/01/11 06:12:20;;;;;;;8.90;8.13;;;-2.60;99.90;;;;;;5033513;28;20504;-59
2024/01/11 06:14:46;;;;;;;7.97;7.28;;;-2.60;99.90;;;;;;5033649;28;20045;-64
2024/01/11 06:17:12;;;;;;;8.65;7.93;;;-2.50;99.90;;;;;;5033213;28;20044;-59
2024/01/11 06:19:38;;;;;;;8.85;8.05;;;-2.70;99.90;;;;;;5015475;28;20056;-60
2024/01/11 06:22:05;;;;;;;7.90;7.20;;;-2.90;99.90;;;;;;5015100;28;20111;-60
2024/01/11 06:24:44;;;;;;;8.52;7.70;;;-2.60;99.90;;;;;;5032849;28;20049;-60
2024/01/11 06:27:10;;;;;;;7.85;7.07;;;-2.60;99.90;;;;;;5033363;28;20038;-59
2024/01/11 06:29:36;;;;;;;9.02;8.13;;;-2.80;99.90;;;;;;5033314;28;20044;-60
2024/01/11 06:32:02;;;;;;;8.48;7.70;;;-2.50;99.90;;;;;;5015289;28;20531;-60
2024/01/11 06:34:28;;;;;;;8.88;8.07;;;-2.50;99.90;;;;;;5033311;28;20072;-59
2024/01/11 06:36:55;;;;;;;8.38;7.68;;;-2.70;99.90;;;;;;5033073;28;20113;-59
2024/01/11 06:39:20;;;;;;;8.32;7.63;;;-2.70;99.90;;;;;;5015213;28;20405;-58
2024/01/11 06:41:46;;;;;;;8.45;7.75;;;-2.50;99.90;;;;;;5033193;28;20041;-59
2024/01/11 06:44:12;;;;;;;9.02;8.13;;;-2.50;99.90;;;;;;5032956;28;20100;-58
2024/01/11 06:46:41;;;;;;;8.20;7.43;;;-2.50;99.90;;;;;;5015198;28;20049;-59
2024/01/11 06:49:10;;;;;;;7.97;7.28;;;-2.50;99.90;;;;;;5033107;28;20396;-58
2024/01/11 06:51:35;;;;;;;10.35;9.45;;;-2.40;99.90;;;;;;5032838;28;20037;-59
2024/01/11 06:54:01;;;;;;;8.75;8.05;;;-2.40;99.90;;;;;;5033052;28;20546;-59
2024/01/11 06:56:27;;;;;;;9.05;8.25;;;-2.20;99.90;;;;;;5015329;28;20116;-60
2024/01/11 06:58:54;;;;;;;9.07;8.18;;;-2.30;99.90;;;;;;5032744;28;20044;-59
2024/01/11 07:01:20;;;;;;;9.02;8.23;;;-2.30;99.90;;;;;;5015206;28;20060;-63
2024/01/11 07:03:45;;;;;;;10.32;9.32;;;-2.20;99.90;;;;;;5033036;28;20034;-63
2024/01/11 07:06:11;;;;;;;8.90;8.10;;;;;;;;;;5033148;28;20040;-68
2024/01/11 07:08:37;;;;;;;8.68;7.88;;;-2.30;99.90;;;;;;5035634;28;20068;-64
2024/01/11 07:11:03;;;;;;;8.75;7.97;;;-2.20;99.90;;;;;;5018974;28;20038;-65
2024/01/11 07:13:32;;;;;;;7.68;7.00;;;-2.20;99.90;;;;;;5036920;28;20037;-64
2024/01/11 07:15:58;;;;;;;7.10;6.50;;;-2.40;99.90;;;;;;5036647;28;20456;-65
2024/01/11 07:18:27;;;;;;;7.93;7.22;;;-2.20;99.90;;;;;;5036756;28;20440;-64
2024/01/11 07:20:53;;;;;;;8.15;7.45;;;-2.00;99.90;;;;;;5036725;28;20045;-65
2024/01/11 07:23:25;;;;;;;8.57;7.78;;;-2.30;99.90;;;;;;5036194;28;20140;-66
2024/01/11 07:26:04;;;;;;;7.80;7.20;;;-2.10;99.90;;;;;;5036701;28;20048;-65
2024/01/11 07:28:30;;;;;;;7.53;6.85;;;-2.00;99.90;;;;;;5036664;28;20140;-65
2024/01/11 07:30:56;;;;;;;8.27;7.57;;;-1.80;99.90;;;;;;5036473;28;20120;-66
2024/01/11 07:33:21;;;;;;;7.85;7.15;;;-1.80;99.90;;;;;;5036553;28;20393;-68
2024/01/11 07:35:47;;;;;;;7.80;7.10;;;-1.50;99.90;;;;;;5036465;28;20473;-65
2024/01/11 07:38:13;;;;;;;8.00;7.30;;;-1.90;99.90;;;;;;5036473;28;20025;-65
2024/01/11 07:40:39;;;;;;;7.97;7.28;;;-1.80;99.90;;;;;;5036128;28;20129;-65
2024/01/11 07:43:05;;;;;;;8.18;7.47;;;-1.80;99.90;;;;;;5018150;28;20060;-65
2024/01/11 07:45:30;;;;;;;7.93;7.22;;;-2.00;99.90;;;;;;5036307;28;20066;-66
2024/01/11 07:47:56;;;;;;;7.85;7.15;;;-1.90;99.90;;;;;;5036244;28;20041;-65
2024/01/11 07:50:22;;;;;;;7.68;6.97;;;-1.90;99.90;;;;;;5036188;28;20052;-65
2024/01/11 07:52:47;;;;;;;7.78;7.00;;;-1.90;99.90;;;;;;5035892;28;20033;-65
2024/01/11 07:55:13;;;;;;;7.32;6.72;;;-1.90;99.90;;;;;;5036055;28;20037;-66
2024/01/11 07:57:39;;;;;;;7.00;6.40;;;-1.80;99.90;;;;;;5036138;28;20469;-65
2024/01/11 08:00:09;;;;;;;7.80;7.20;;;-1.80;99.90;;;;;;5036129;28;20460;-66
2024/01/11 08:02:35;;;;;;;7.35;6.65;;;-1.80;99.90;;;;;;5036046;28;20481;-66
2024/01/11 08:05:00;;;;;;;7.97;7.28;;;-1.90;99.90;;;;;;5035623;28;20041;-65
2024/01/11 08:07:30;;;;;;;7.13;6.50;;;-1.80;99.90;;;;;;5035653;28;20088;-66
2024/01/11 08:09:56;;;;;;;6.97;6.38;;;-1.80;99.90;;;;;;5035521;28;20049;-62
2024/01/11 08:12:22;;;;;;;8.00;7.30;;;-1.80;99.90;;;;;;5035814;28;20033;-64
2024/01/11 08:14:48;;;;;;;7.45;6.85;;;-1.70;99.90;;;;;;5035758;28;20424;-63
2024/01/11 08:17:14;;;;;;;8.48;7.32;;;-1.70;99.90;;;;;;5035726;28;20041;-65
2024/01/11 08:19:40;;;;;;;8.27;7.50;;;-1.70;99.90;;;;;;5035046;28;20045;-65
2024/01/11 08:22:13;;;;;;;7.30;6.70;;;-1.10;99.90;;;;;;5035362;28;20049;-69
2024/01/11 08:24:52;;;;;;;7.25;6.57;;;-1.60;99.90;;;;;;5017624;28;20049;-69
2024/01/11 08:27:18;;;;;;;7.90;7.20;;;-1.60;99.90;;;;;;5017896;28;20504;-69
2024/01/11 08:29:43;;;;;;;7.72;7.05;;;-1.50;99.90;;;;;;5035381;28;20038;-70
2024/01/11 08:32:09;;;;;;;6.63;6.03;;;-1.60;99.90;;;;;;5035236;28;20033;-69
2024/01/11 08:34:35;;;;;;;7.35;6.65;;;-1.50;99.90;;;;;;5035218;28;20504;-69
2024/01/11 08:37:00;;;;;;;6.60;6.05;;;-1.40;99.90;;;;;;5035313;28;20507;-66
2024/01/11 08:39:26;;;;;;;7.20;6.60;;;-1.40;99.90;;;;;;5035154;28;20048;-66
2024/01/11 08:41:52;;;;;;;7.35;6.75;;;-1.30;99.90;;;;;;5035304;28;20041;-66
2024/01/11 08:44:18;;;;;;;6.63;6.03;;;-1.20;99.90;;;;;;5034998;28;20120;-67
2024/01/11 08:46:44;;;;;;;7.18;6.57;;;-1.20;99.90;;;;;;5017221;28;20448;-70
2024/01/11 08:49:09;;;;;;;7.35;6.75;;;-1.20;99.90;;;;;;5017357;28;20044;-70
2024/01/11 08:51:35;;;;;;;6.90;6.30;;;-1.10;99.90;;;;;;5034920;28;20029;-69
2024/01/11 08:54:01;;;;;;;6.93;6.32;;;-1.10;99.90;;;;;;5017071;28;20041;-69
2024/01/11 08:56:30;;;;;;;6.90;6.20;;;-1.10;99.90;;;;;;5034977;28;20033;-69
2024/01/11 08:58:55;;;;;;;7.18;6.57;;;-1.00;99.90;;;;;;5016995;28;20397;-70
2024/01/11 09:01:22;;;;;;;6.55;5.95;;;-1.00;99.90;;;;;;5016907;28;20114;-70
2024/01/11 09:03:50;;;;;;;6.07;5.57;;;-1.00;99.90;;;;;;5016952;28;20501;-69
2024/01/11 09:06:16;;;;;;;6.65;6.05;;;-0.90;99.90;;;;;;5016791;28;20041;-69
2024/01/11 09:08:41;;;;;;;6.80;6.20;;;-0.90;99.90;;;;;;5034546;28;20052;-69
2024/01/11 09:11:07;;;;;;;6.93;6.32;;;-0.80;99.90;;;;;;5016656;28;20037;-66
2024/01/11 09:13:33;;;;;;;6.35;5.75;;;-0.80;99.90;;;;;;5034491;28;20048;-68
2024/01/11 09:15:59;;;;;;;7.00;6.40;;;-0.70;99.90;;;;;;5016951;28;20045;-68
2024/01/11 09:18:24;;;;;;;6.35;5.80;;;-0.70;99.90;;;;;;5016599;28;20041;-67
2024/01/11 09:20:50;;;;;;;6.07;5.47;;;-0.60;99.90;;;;;;5000256;28;20128;-67
2024/01/11 09:23:23;;;;;;;5.95;5.45;;;-0.60;99.90;;;;;;5016276;28;20136;-67
2024/01/11 09:26:02;;;;;;;6.13;5.60;;;-0.50;99.90;;;;;;5016387;28;20413;-67
2024/01/11 09:28:28;;;;;;;5.50;5.07;;;-0.50;99.90;;;;;;5032970;28;20128;-67
2024/01/11 09:30:59;;;;;;;5.97;5.47;;;-0.50;99.90;;;;;;5015457;28;20129;-67
2024/01/11 09:33:25;;;;;;;;;;;-0.40;99.90;;;;;;5034929;28;20401;-65
2024/01/11 09:35:51;;;;;;;5.95;5.45;;;-0.40;99.90;;;;;;5016291;28;19972;-66
2024/01/11 09:38:17;;;;;;;6.40;5.80;;;-0.40;99.90;;;;;;5034234;28;20117;-65
2024/01/11 09:40:42;;;;;;;6.53;5.93;;;-0.30;99.90;;;;;;5033891;28;20112;-65
2024/01/11 09:43:09;;;;;;;6.53;5.93;;;-0.30;99.90;;;;;;5032766;28;20047;-65
2024/01/11 09:45:37;;;;;;;7.03;6.43;;;-0.30;99.90;;;;;;5034134;28;20539;-65
2024/01/11 09:48:05;;;;;;;5.90;5.40;;;0.20;99.90;;;;;;5034012;28;20400;-65
2024/01/11 09:50:32;;;;;;;6.00;5.50;;;-0.20;99.90;;;;;;5033896;28;20057;-65
2024/01/11 09:53:00;;;;;;;6.43;5.93;;;-0.20;99.90;;;;;;5033964;28;20038;-65
2024/01/11 09:55:26;;;;;;;6.18;5.57;;;-0.20;99.90;;;;;;5033893;28;20038;-69
2024/01/11 09:57:57;;;;;;;6.28;5.72;;;-0.10;99.90;;;;;;5033817;28;20052;-65
2024/01/11 10:00:24;;;;;;;6.22;5.72;;;0.00;99.90;;;;;;5033511;28;20046;-65
2024/01/11 10:02:49;;;;;;;6.78;6.18;;;0.00;99.90;;;;;;5033754;28;20086;-65
2024/01/11 10:05:18;;;;;;;6.32;5.72;;;0.10;99.90;;;;;;5015795;28;20464;-65
2024/01/11 10:07:45;;;;;;;6.85;6.25;;;0.10;99.90;;;;;;5033380;28;20057;-65
2024/01/11 10:10:15;;;;;;;5.63;5.13;;;0.20;99.90;;;;;;5015625;28;20085;-65
2024/01/11 10:12:40;;;;;;;6.43;5.82;;;0.20;99.90;;;;;;5015539;28;20405;-65
2024/01/11 10:15:10;;;;;;;5.85;5.35;;;0.20;99.90;;;;;;5050220;28;20033;-65
2024/01/11 10:17:46;;;;;;;5.90;5.40;;;0.30;99.90;;;;;;5053467;28;20036;-65
2024/01/11 10:20:13;;;;;;;5.70;5.18;;;0.30;99.90;;;;;;5035513;28;20045;-65
2024/01/11 10:22:47;;;;;;;5.45;4.95;;;0.50;99.90;;;;;;5031781;28;20096;-65
2024/01/11 10:25:15;;;;;;;6.22;5.63;;;0.50;99.90;;;;;;5033171;28;20444;-65
2024/01/11 10:27:43;;;;;;;5.60;5.10;;;0.60;99.90;;;;;;5033106;28;20127;-65
2024/01/11 10:30:13;;;;;;;5.38;4.88;;;0.70;99.90;;;;;;5032964;28;20044;-65
2024/01/11 10:32:39;;;;;;;5.97;5.47;;;0.60;99.90;;;;;;5033247;28;20477;-65
2024/01/11 10:35:05;;;;;;;5.45;4.95;;;0.70;99.90;;;;;;5015406;28;20424;-66
2024/01/11 10:37:35;;;;;;;5.50;5.00;;;0.80;99.90;;;;;;5033160;28;20040;-65
2024/01/11 10:40:09;;;;;;;6.35;5.75;;;0.60;99.90;;;;;;5032938;28;20049;-64
2024/01/11 10:42:37;;;;;;;4.88;4.47;;;0.60;99.90;;;;;;5032598;28;20037;-59
2024/01/11 10:45:06;;;;;;;5.32;4.82;;;1.10;99.90;;;;;;5032869;28;20073;-59
2024/01/11 10:47:33;;;;;;;4.85;4.45;;;0.50;99.90;;;;;;5033109;28;20049;-59
2024/01/11 10:50:01;;;;;;;5.15;4.75;;;0.60;99.90;;;;;;5015125;28;20060;-59
2024/01/11 10:52:34;;;;;;;4.88;4.47;;;0.60;99.90;;;;;;5032916;28;20045;-59
2024/01/11 10:55:02;;;;;;;5.00;4.60;;;0.70;99.90;;;;;;5033086;28;20048;-59
2024/01/11 10:57:29;;;;;;;5.47;4.97;;;0.70;99.90;;;;;;5032808;28;20106;-59
2024/01/11 10:59:55;;;;;;;4.63;4.22;;;0.70;99.90;;;;;;5032776;28;20046;-59
2024/01/11 11:02:22;;;;;;;4.45;4.05;;;0.70;99.90;;;;;;5032980;28;20494;-59
2024/01/11 11:04:50;;;;;;;5.97;5.05;;;0.70;99.90;;;;;;5032941;28;20041;-59
2024/01/11 11:07:18;;;;;;;5.63;5.07;;;0.80;99.90;;;;;;5015151;28;20429;-59
2024/01/11 11:09:45;;;;;;;7.10;5.47;;;0.70;99.90;;;;;;5015181;28;20512;-59
2024/01/11 11:12:11;;;;;;;5.65;5.15;;;0.70;99.90;;;;;;5014888;28;20397;-60
2024/01/11 11:14:38;;;;;;;5.15;4.72;;;0.80;99.90;;;;;;5032401;28;20045;-60
2024/01/11 11:17:05;;;;;;;5.10;4.70;;;0.80;99.90;;;;;;5032553;28;20374;-58
2024/01/11 11:19:31;;;;;;;4.82;4.43;;;0.80;99.90;;;;;;5032502;28;20037;-59
2024/01/11 11:21:57;;;;;;;5.18;4.70;;;0.90;99.90;;;;;;5032849;28;20041;-59
2024/01/11 11:24:22;;;;;;;5.30;4.80;;;0.90;99.90;;;;;;5032275;28;20535;-59
2024/01/11 11:26:57;;;;;;;5.63;5.15;;;0.90;99.90;;;;;;5014867;28;20052;-60
2024/01/11 11:29:22;;;;;;;5.60;5.10;;;1.00;99.90;;;;;;5032433;28;20120;-59
2024/01/11 11:31:53;;;;;;;5.50;5.00;;;1.00;99.90;;;;;;5032768;28;20113;-59
2024/01/11 11:34:20;;;;;;;5.28;4.88;;;1.00;99.90;;;;;;5014817;28;20060;-61
2024/01/11 11:36:54;;;;;;;5.78;5.28;;;1.00;99.90;;;;;;5014981;28;20675;-59
2024/01/11 11:39:20;;;;;;;5.43;4.93;;;1.10;99.90;;;;;;5014721;28;20088;-59
2024/01/11 11:41:47;;;;;;;5.13;4.70;;;1.10;99.90;;;;;;5014738;28;20461;-59
2024/01/11 11:44:13;;;;;;;4.90;4.50;;;1.10;99.90;;;;;;5014629;28;20409;-59
2024/01/11 11:46:39;;;;;;;5.35;4.85;;;1.20;99.90;;;;;;5014769;28;20045;-59
2024/01/11 11:49:05;;;;;;;4.38;3.97;;;1.20;99.90;;;;;;5032676;28;20041;-59
2024/01/11 11:51:32;;;;;;;5.15;4.65;;;1.20;99.90;;;;;;4998119;28;20050;-71
2024/01/11 11:53:58;;;;;;;5.57;5.07;;;1.20;99.90;;;;;;5015633;28;20069;-70
2024/01/11 11:56:24;;;;;;;5.43;4.93;;;1.20;99.90;;;;;;5035634;28;20072;-70
2024/01/11 11:58:52;;;;;;;5.38;4.90;;;1.20;99.90;;;;;;5017886;28;20052;-70
2024/01/11 12:01:18;;;;;;;4.95;4.55;;;1.30;99.90;;;;;;5017775;28;20041;-70
2024/01/11 12:03:50;;;;;;;5.30;4.80;;;1.30;99.90;;;;;;5018027;28;20042;-70
2024/01/11 12:06:22;;;;;;;5.00;4.60;;;1.30;99.90;;;;;;5017908;28;20499;-70
2024/01/11 12:08:48;;;;;;;5.60;5.10;;;1.70;99.90;;;;;;5017935;28;20433;-70
2024/01/11 12:11:19;;;;;;;6.05;5.45;;;1.30;99.90;;;;;;5035449;28;20048;-70
2024/01/11 12:13:45;;;;;;;5.05;4.65;;;1.30;99.90;;;;;;5035894;28;20087;-70
2024/01/11 12:16:11;;;;;;;5.55;5.05;;;1.30;99.90;;;;;;5035802;28;20045;-71
2024/01/11 12:18:37;;;;;;;5.63;5.07;;;1.30;99.90;;;;;;5035796;28;20042;-71
2024/01/11 12:21:03;;;;;;;5.72;4.78;;;1.30;99.90;;;;;;5035744;28;20039;-72
2024/01/11 12:23:45;;;;;;;4.70;4.30;;;1.20;99.90;;;;;;5035114;28;20053;-70
2024/01/11 12:26:21;;;;;;;5.55;5.05;;;1.20;99.90;;;;;;5017261;28;20055;-70
2024/01/11 12:28:47;;;;;;;5.20;4.70;;;1.30;99.90;;;;;;5035659;28;20033;-70
2024/01/11 12:31:13;;;;;;;5.30;4.88;;;1.30;99.90;;;;;;5017421;28;20050;-69
2024/01/11 12:33:38;;;;;;;5.55;4.75;;;1.30;99.90;;;;;;5035540;28;20473;-70
2024/01/11 12:36:07;;;;;;;5.72;5.13;;;1.30;99.90;;;;;;5035400;28;20048;-70
2024/01/11 12:38:34;;;;;;;5.45;4.93;;;1.40;99.90;;;;;;5017417;28;20041;-70
2024/01/11 12:40:59;;;;;;;5.28;4.78;;;1.30;99.90;;;;;;5017320;28;20049;-70
2024/01/11 12:43:25;;;;;;;5.30;4.82;;;1.30;99.90;;;;;;5017199;28;20099;-68
2024/01/11 12:45:51;;;;;;;5.78;5.18;;;1.30;99.90;;;;;;5035210;28;20048;-70
2024/01/11 12:48:18;;;;;;;5.13;4.72;;;1.30;99.90;;;;;;5017431;28;20045;-70